sensor_id;sensor_type;location;lat;lon;timestamp;P1;durP1;ratioP1;P2;durP2;ratioP2
2404;SDS011;1213;43.206;27.922;2022-12-07T00:01:06;5.40;;;1.67;;
2404;SDS011;1213;43.206;27.922;2022-12-07T00:03:36;1.90;;;1.70;;
2404;SDS011;1213;43.206;27.922;2022-12-07T00:06:03;3.33;;;1.60;;
2404;SDS011;1213;43.206;27.922;2022-12-07T00:08:30;1.40;;;1.30;;
2404;SDS011;1213;43.206;27.922;2022-12-07T00:11:16;3.43;;;1.47;;
2404;SDS011;1213;43.206;27.922;2022-12-07T00:13:44;1.43;;;1.33;;
2404;SDS011;1213;43.206;27.922;2022-12-07T00:16:15;2.57;;;1.90;;
2404;SDS011;1213;43.206;27.922;2022-12-07T00:18:41;2.13;;;1.27;;
2404;SDS011;1213;43.206;27.922;2022-12-07T00:21:11;1.80;;;1.70;;
2404;SDS011;1213;43.206;27.922;2022-12-07T00:23:41;1.97;;;1.80;;
2404;SDS011;1213;43.206;27.922;2022-12-07T00:26:09;1.57;;;1.47;;
2404;SDS011;1213;43.206;27.922;2022-12-07T00:28:40;3.53;;;1.60;;
2404;SDS011;1213;43.206;27.922;2022-12-07T00:31:06;2.33;;;1.53;;
2404;SDS011;1213;43.206;27.922;2022-12-07T00:33:34;1.63;;;1.10;;
2404;SDS011;1213;43.206;27.922;2022-12-07T00:36:01;1.73;;;1.63;;
2404;SDS011;1213;43.206;27.922;2022-12-07T00:38:29;1.60;;;1.50;;
2404;SDS011;1213;43.206;27.922;2022-12-07T00:40:57;2.97;;;1.57;;
2404;SDS011;1213;43.206;27.922;2022-12-07T00:43:27;1.90;;;1.80;;
2404;SDS011;1213;43.206;27.922;2022-12-07T00:45:53;1.60;;;1.50;;
2404;SDS011;1213;43.206;27.922;2022-12-07T00:48:19;2.50;;;1.27;;
2404;SDS011;1213;43.206;27.922;2022-12-07T00:50:45;3.00;;;2.00;;
2404;SDS011;1213;43.206;27.922;2022-12-07T00:53:11;3.17;;;1.30;;
2404;SDS011;1213;43.206;27.922;2022-12-07T00:55:37;2.00;;;1.80;;
2404;SDS011;1213;43.206;27.922;2022-12-07T00:58:03;2.90;;;1.47;;
2404;SDS011;1213;43.206;27.922;2022-12-07T01:00:29;1.50;;;1.40;;
2404;SDS011;1213;43.206;27.922;2022-12-07T01:02:55;1.93;;;1.67;;
2404;SDS011;1213;43.206;27.922;2022-12-07T01:05:20;1.40;;;1.17;;
2404;SDS011;1213;43.206;27.922;2022-12-07T01:07:45;2.40;;;1.30;;
2404;SDS011;1213;43.206;27.922;2022-12-07T01:10:12;2.37;;;2.00;;
2404;SDS011;1213;43.206;27.922;2022-12-07T01:12:38;1.43;;;1.33;;
2404;SDS011;1213;43.206;27.922;2022-12-07T01:15:04;1.53;;;1.43;;
2404;SDS011;1213;43.206;27.922;2022-12-07T01:17:30;2.23;;;1.97;;
2404;SDS011;1213;43.206;27.922;2022-12-07T01:19:55;2.07;;;1.93;;
2404;SDS011;1213;43.206;27.922;2022-12-07T01:22:21;1.33;;;1.23;;
2404;SDS011;1213;43.206;27.922;2022-12-07T01:24:46;2.33;;;2.13;;
2404;SDS011;1213;43.206;27.922;2022-12-07T01:27:12;3.77;;;2.37;;
2404;SDS011;1213;43.206;27.922;2022-12-07T01:29:38;2.07;;;1.87;;
2404;SDS011;1213;43.206;27.922;2022-12-07T01:32:04;2.37;;;2.13;;
2404;SDS011;1213;43.206;27.922;2022-12-07T01:34:30;2.60;;;1.60;;
2404;SDS011;1213;43.206;27.922;2022-12-07T01:36:55;3.30;;;1.67;;
2404;SDS011;1213;43.206;27.922;2022-12-07T01:39:21;3.33;;;2.47;;
2404;SDS011;1213;43.206;27.922;2022-12-07T01:41:47;2.10;;;1.80;;
2404;SDS011;1213;43.206;27.922;2022-12-07T01:46:48;2.60;;;1.40;;
2404;SDS011;1213;43.206;27.922;2022-12-07T01:49:17;2.70;;;2.33;;
2404;SDS011;1213;43.206;27.922;2022-12-07T01:51:47;1.60;;;1.50;;
2404;SDS011;1213;43.206;27.922;2022-12-07T01:54:16;1.20;;;1.10;;
2404;SDS011;1213;43.206;27.922;2022-12-07T01:56:43;1.73;;;1.50;;
2404;SDS011;1213;43.206;27.922;2022-12-07T01:59:16;4.13;;;2.07;;
2404;SDS011;1213;43.206;27.922;2022-12-07T02:01:44;2.07;;;1.83;;
2404;SDS011;1213;43.206;27.922;2022-12-07T02:04:10;1.20;;;1.10;;
2404;SDS011;1213;43.206;27.922;2022-12-07T02:06:37;1.83;;;1.70;;
2404;SDS011;1213;43.206;27.922;2022-12-07T02:09:03;2.60;;;2.30;;
2404;SDS011;1213;43.206;27.922;2022-12-07T02:11:30;3.20;;;2.00;;
2404;SDS011;1213;43.206;27.922;2022-12-07T02:13:56;1.57;;;1.43;;
2404;SDS011;1213;43.206;27.922;2022-12-07T02:25:16;2.07;;;1.67;;
2404;SDS011;1213;43.206;27.922;2022-12-07T02:28:07;2.17;;;1.83;;
2404;SDS011;1213;43.206;27.922;2022-12-07T02:30:54;2.67;;;2.10;;
2404;SDS011;1213;43.206;27.922;2022-12-07T02:33:27;2.03;;;1.83;;
2404;SDS011;1213;43.206;27.922;2022-12-07T02:36:04;1.53;;;1.43;;
2404;SDS011;1213;43.206;27.922;2022-12-07T02:43:45;3.20;;;1.93;;
2404;SDS011;1213;43.206;27.922;2022-12-07T02:46:17;1.80;;;1.70;;
2404;SDS011;1213;43.206;27.922;2022-12-07T02:48:48;3.40;;;3.10;;
2404;SDS011;1213;43.206;27.922;2022-12-07T02:51:16;2.03;;;1.90;;
2404;SDS011;1213;43.206;27.922;2022-12-07T02:53:43;3.13;;;2.73;;
2404;SDS011;1213;43.206;27.922;2022-12-07T03:02:22;2.13;;;2.03;;
2404;SDS011;1213;43.206;27.922;2022-12-07T03:05:13;2.47;;;2.27;;
2404;SDS011;1213;43.206;27.922;2022-12-07T03:10:18;3.13;;;2.37;;
2404;SDS011;1213;43.206;27.922;2022-12-07T03:18:16;3.47;;;2.80;;
2404;SDS011;1213;43.206;27.922;2022-12-07T03:20:45;2.87;;;2.67;;
2404;SDS011;1213;43.206;27.922;2022-12-07T03:23:13;3.00;;;2.33;;
2404;SDS011;1213;43.206;27.922;2022-12-07T03:25:43;5.40;;;3.70;;
2404;SDS011;1213;43.206;27.922;2022-12-07T03:28:12;2.80;;;2.60;;
2404;SDS011;1213;43.206;27.922;2022-12-07T03:31:15;4.10;;;3.23;;
2404;SDS011;1213;43.206;27.922;2022-12-07T03:39:35;7.33;;;3.90;;
2404;SDS011;1213;43.206;27.922;2022-12-07T03:42:06;4.13;;;2.90;;
2404;SDS011;1213;43.206;27.922;2022-12-07T03:44:33;4.97;;;2.90;;
2404;SDS011;1213;43.206;27.922;2022-12-07T03:47:05;3.97;;;3.73;;
2404;SDS011;1213;43.206;27.922;2022-12-07T03:49:40;4.43;;;3.10;;
2404;SDS011;1213;43.206;27.922;2022-12-07T03:57:29;6.73;;;2.70;;
2404;SDS011;1213;43.206;27.922;2022-12-07T03:59:57;3.37;;;2.93;;
2404;SDS011;1213;43.206;27.922;2022-12-07T04:02:24;4.93;;;3.20;;
2404;SDS011;1213;43.206;27.922;2022-12-07T04:04:51;4.47;;;3.60;;
2404;SDS011;1213;43.206;27.922;2022-12-07T04:07:17;4.57;;;3.50;;
2404;SDS011;1213;43.206;27.922;2022-12-07T04:09:43;8.27;;;4.53;;
2404;SDS011;1213;43.206;27.922;2022-12-07T04:12:08;2.63;;;2.27;;
2404;SDS011;1213;43.206;27.922;2022-12-07T04:14:34;5.70;;;3.53;;
2404;SDS011;1213;43.206;27.922;2022-12-07T04:16:59;4.67;;;3.23;;
2404;SDS011;1213;43.206;27.922;2022-12-07T04:19:26;3.13;;;2.83;;
2404;SDS011;1213;43.206;27.922;2022-12-07T04:21:54;3.87;;;2.87;;
2404;SDS011;1213;43.206;27.922;2022-12-07T04:24:20;4.33;;;3.00;;
2404;SDS011;1213;43.206;27.922;2022-12-07T04:26:46;6.30;;;3.60;;
2404;SDS011;1213;43.206;27.922;2022-12-07T04:29:12;4.47;;;3.10;;
2404;SDS011;1213;43.206;27.922;2022-12-07T04:31:39;2.30;;;2.10;;
2404;SDS011;1213;43.206;27.922;2022-12-07T04:34:05;3.57;;;3.27;;
2404;SDS011;1213;43.206;27.922;2022-12-07T04:36:32;5.23;;;3.47;;
2404;SDS011;1213;43.206;27.922;2022-12-07T04:38:58;4.17;;;2.93;;
2404;SDS011;1213;43.206;27.922;2022-12-07T04:41:24;3.47;;;2.40;;
2404;SDS011;1213;43.206;27.922;2022-12-07T04:43:56;4.17;;;3.87;;
2404;SDS011;1213;43.206;27.922;2022-12-07T04:46:26;6.90;;;5.20;;
2404;SDS011;1213;43.206;27.922;2022-12-07T04:48:52;9.40;;;3.20;;
2404;SDS011;1213;43.206;27.922;2022-12-07T04:51:19;5.77;;;4.00;;
2404;SDS011;1213;43.206;27.922;2022-12-07T04:53:50;4.63;;;4.23;;
2404;SDS011;1213;43.206;27.922;2022-12-07T04:56:16;5.60;;;3.93;;
2404;SDS011;1213;43.206;27.922;2022-12-07T04:58:42;3.70;;;3.30;;
2404;SDS011;1213;43.206;27.922;2022-12-07T05:01:09;4.27;;;3.80;;
2404;SDS011;1213;43.206;27.922;2022-12-07T05:03:35;4.40;;;3.73;;
2404;SDS011;1213;43.206;27.922;2022-12-07T05:06:01;9.53;;;5.30;;
2404;SDS011;1213;43.206;27.922;2022-12-07T05:08:27;6.00;;;3.07;;
2404;SDS011;1213;43.206;27.922;2022-12-07T05:10:53;6.90;;;4.93;;
2404;SDS011;1213;43.206;27.922;2022-12-07T05:13:18;5.83;;;4.77;;
2404;SDS011;1213;43.206;27.922;2022-12-07T05:15:44;8.40;;;4.00;;
2404;SDS011;1213;43.206;27.922;2022-12-07T05:18:11;4.70;;;4.00;;
2404;SDS011;1213;43.206;27.922;2022-12-07T05:20:38;4.53;;;4.13;;
2404;SDS011;1213;43.206;27.922;2022-12-07T05:23:07;4.80;;;4.27;;
2404;SDS011;1213;43.206;27.922;2022-12-07T05:25:33;6.43;;;4.97;;
2404;SDS011;1213;43.206;27.922;2022-12-07T05:27:58;7.27;;;5.13;;
2404;SDS011;1213;43.206;27.922;2022-12-07T05:30:24;7.90;;;6.43;;
2404;SDS011;1213;43.206;27.922;2022-12-07T05:32:51;22.93;;;6.20;;
2404;SDS011;1213;43.206;27.922;2022-12-07T05:35:17;7.80;;;6.17;;
2404;SDS011;1213;43.206;27.922;2022-12-07T05:37:43;7.67;;;4.60;;
2404;SDS011;1213;43.206;27.922;2022-12-07T05:40:09;11.23;;;7.63;;
2404;SDS011;1213;43.206;27.922;2022-12-07T05:42:35;8.67;;;6.07;;
2404;SDS011;1213;43.206;27.922;2022-12-07T05:45:01;9.40;;;5.77;;
2404;SDS011;1213;43.206;27.922;2022-12-07T05:47:27;13.87;;;6.30;;
2404;SDS011;1213;43.206;27.922;2022-12-07T05:49:52;10.90;;;7.97;;
2404;SDS011;1213;43.206;27.922;2022-12-07T05:52:18;9.93;;;6.37;;
2404;SDS011;1213;43.206;27.922;2022-12-07T05:54:43;7.03;;;6.40;;
2404;SDS011;1213;43.206;27.922;2022-12-07T05:57:09;11.83;;;7.70;;
2404;SDS011;1213;43.206;27.922;2022-12-07T05:59:34;7.47;;;6.53;;
2404;SDS011;1213;43.206;27.922;2022-12-07T06:02:01;7.53;;;5.10;;
2404;SDS011;1213;43.206;27.922;2022-12-07T06:04:29;7.80;;;6.07;;
2404;SDS011;1213;43.206;27.922;2022-12-07T06:06:56;8.53;;;5.23;;
2404;SDS011;1213;43.206;27.922;2022-12-07T06:09:22;12.60;;;7.27;;
2404;SDS011;1213;43.206;27.922;2022-12-07T06:11:49;7.77;;;6.30;;
2404;SDS011;1213;43.206;27.922;2022-12-07T06:14:34;7.17;;;6.27;;
2404;SDS011;1213;43.206;27.922;2022-12-07T06:17:00;16.67;;;9.90;;
2404;SDS011;1213;43.206;27.922;2022-12-07T06:19:25;14.20;;;10.07;;
2404;SDS011;1213;43.206;27.922;2022-12-07T06:21:51;12.30;;;6.87;;
2404;SDS011;1213;43.206;27.922;2022-12-07T06:24:17;10.80;;;7.80;;
2404;SDS011;1213;43.206;27.922;2022-12-07T06:26:43;24.87;;;9.67;;
2404;SDS011;1213;43.206;27.922;2022-12-07T06:29:08;14.97;;;10.10;;
2404;SDS011;1213;43.206;27.922;2022-12-07T06:31:35;10.37;;;8.57;;
2404;SDS011;1213;43.206;27.922;2022-12-07T06:34:03;11.93;;;7.30;;
2404;SDS011;1213;43.206;27.922;2022-12-07T06:36:30;9.43;;;8.43;;
2404;SDS011;1213;43.206;27.922;2022-12-07T06:38:56;10.40;;;8.63;;
2404;SDS011;1213;43.206;27.922;2022-12-07T06:41:21;19.77;;;8.90;;
2404;SDS011;1213;43.206;27.922;2022-12-07T06:43:47;15.00;;;8.43;;
2404;SDS011;1213;43.206;27.922;2022-12-07T06:46:13;9.80;;;7.60;;
2404;SDS011;1213;43.206;27.922;2022-12-07T06:48:40;9.73;;;7.63;;
2404;SDS011;1213;43.206;27.922;2022-12-07T06:51:06;15.13;;;8.57;;
2404;SDS011;1213;43.206;27.922;2022-12-07T06:53:31;12.13;;;8.43;;
2404;SDS011;1213;43.206;27.922;2022-12-07T06:55:57;12.53;;;9.40;;
2404;SDS011;1213;43.206;27.922;2022-12-07T06:58:22;11.47;;;7.03;;
2404;SDS011;1213;43.206;27.922;2022-12-07T07:00:48;9.67;;;7.57;;
2404;SDS011;1213;43.206;27.922;2022-12-07T07:03:15;11.50;;;7.03;;
2404;SDS011;1213;43.206;27.922;2022-12-07T07:05:41;11.40;;;9.23;;
2404;SDS011;1213;43.206;27.922;2022-12-07T07:08:06;13.30;;;6.60;;
2404;SDS011;1213;43.206;27.922;2022-12-07T07:10:32;12.00;;;8.17;;
2404;SDS011;1213;43.206;27.922;2022-12-07T07:12:58;14.63;;;8.60;;
2404;SDS011;1213;43.206;27.922;2022-12-07T07:15:26;8.07;;;6.63;;
2404;SDS011;1213;43.206;27.922;2022-12-07T07:17:51;9.50;;;7.27;;
2404;SDS011;1213;43.206;27.922;2022-12-07T07:20:17;14.60;;;7.20;;
2404;SDS011;1213;43.206;27.922;2022-12-07T07:22:43;9.60;;;6.77;;
2404;SDS011;1213;43.206;27.922;2022-12-07T07:25:08;8.87;;;6.33;;
2404;SDS011;1213;43.206;27.922;2022-12-07T07:27:34;7.30;;;5.17;;
2404;SDS011;1213;43.206;27.922;2022-12-07T07:29:59;11.50;;;8.80;;
2404;SDS011;1213;43.206;27.922;2022-12-07T07:32:25;12.40;;;8.77;;
2404;SDS011;1213;43.206;27.922;2022-12-07T07:34:50;8.67;;;6.30;;
2404;SDS011;1213;43.206;27.922;2022-12-07T07:37:16;8.93;;;7.50;;
2404;SDS011;1213;43.206;27.922;2022-12-07T07:39:41;12.23;;;5.80;;
2404;SDS011;1213;43.206;27.922;2022-12-07T07:42:07;9.23;;;6.23;;
2404;SDS011;1213;43.206;27.922;2022-12-07T07:44:33;7.53;;;5.60;;
2404;SDS011;1213;43.206;27.922;2022-12-07T07:46:59;10.67;;;8.00;;
2404;SDS011;1213;43.206;27.922;2022-12-07T07:49:25;15.33;;;8.57;;
2404;SDS011;1213;43.206;27.922;2022-12-07T07:51:50;8.77;;;6.50;;
2404;SDS011;1213;43.206;27.922;2022-12-07T07:54:16;9.40;;;6.67;;
2404;SDS011;1213;43.206;27.922;2022-12-07T07:56:42;13.67;;;7.87;;
2404;SDS011;1213;43.206;27.922;2022-12-07T07:59:07;7.30;;;6.43;;
2404;SDS011;1213;43.206;27.922;2022-12-07T08:01:33;6.80;;;5.10;;
2404;SDS011;1213;43.206;27.922;2022-12-07T08:04:00;11.60;;;7.70;;
2404;SDS011;1213;43.206;27.922;2022-12-07T08:06:25;7.43;;;4.90;;
2404;SDS011;1213;43.206;27.922;2022-12-07T08:08:54;10.50;;;5.23;;
2404;SDS011;1213;43.206;27.922;2022-12-07T08:11:19;8.93;;;4.67;;
2404;SDS011;1213;43.206;27.922;2022-12-07T08:13:45;5.10;;;4.40;;
2404;SDS011;1213;43.206;27.922;2022-12-07T08:16:14;4.47;;;4.00;;
2404;SDS011;1213;43.206;27.922;2022-12-07T08:18:40;6.13;;;4.73;;
2404;SDS011;1213;43.206;27.922;2022-12-07T08:21:07;5.37;;;4.87;;
2404;SDS011;1213;43.206;27.922;2022-12-07T08:23:36;7.40;;;4.00;;
2404;SDS011;1213;43.206;27.922;2022-12-07T08:26:03;5.50;;;5.00;;
2404;SDS011;1213;43.206;27.922;2022-12-07T08:28:30;5.73;;;4.47;;
2404;SDS011;1213;43.206;27.922;2022-12-07T08:31:02;8.40;;;6.40;;
2404;SDS011;1213;43.206;27.922;2022-12-07T08:33:32;8.80;;;5.23;;
2404;SDS011;1213;43.206;27.922;2022-12-07T08:36:05;11.73;;;5.60;;
2404;SDS011;1213;43.206;27.922;2022-12-07T08:38:33;8.40;;;6.00;;
2404;SDS011;1213;43.206;27.922;2022-12-07T08:41:00;5.40;;;4.90;;
2404;SDS011;1213;43.206;27.922;2022-12-07T08:43:26;5.30;;;4.53;;
2404;SDS011;1213;43.206;27.922;2022-12-07T08:45:54;7.83;;;4.97;;
2404;SDS011;1213;43.206;27.922;2022-12-07T08:48:55;6.13;;;5.07;;
2404;SDS011;1213;43.206;27.922;2022-12-07T08:51:26;6.00;;;4.00;;
2404;SDS011;1213;43.206;27.922;2022-12-07T08:53:52;6.20;;;4.67;;
2404;SDS011;1213;43.206;27.922;2022-12-07T08:56:19;7.10;;;5.03;;
2404;SDS011;1213;43.206;27.922;2022-12-07T08:58:45;13.80;;;8.77;;
2404;SDS011;1213;43.206;27.922;2022-12-07T09:01:10;6.40;;;4.00;;
2404;SDS011;1213;43.206;27.922;2022-12-07T09:03:36;7.23;;;3.83;;
2404;SDS011;1213;43.206;27.922;2022-12-07T09:06:01;7.33;;;5.23;;
2404;SDS011;1213;43.206;27.922;2022-12-07T09:08:31;5.50;;;3.20;;
2404;SDS011;1213;43.206;27.922;2022-12-07T09:11:00;3.53;;;3.20;;
2404;SDS011;1213;43.206;27.922;2022-12-07T09:13:31;3.90;;;3.47;;
2404;SDS011;1213;43.206;27.922;2022-12-07T09:16:00;8.07;;;3.53;;
2404;SDS011;1213;43.206;27.922;2022-12-07T09:18:25;5.20;;;3.90;;
2404;SDS011;1213;43.206;27.922;2022-12-07T09:20:51;10.67;;;3.90;;
2404;SDS011;1213;43.206;27.922;2022-12-07T09:23:18;5.83;;;3.70;;
2404;SDS011;1213;43.206;27.922;2022-12-07T09:25:43;4.97;;;3.47;;
2404;SDS011;1213;43.206;27.922;2022-12-07T09:28:09;7.63;;;3.67;;
2404;SDS011;1213;43.206;27.922;2022-12-07T09:30:35;8.70;;;3.93;;
2404;SDS011;1213;43.206;27.922;2022-12-07T09:33:01;4.60;;;4.20;;
2404;SDS011;1213;43.206;27.922;2022-12-07T09:35:28;3.70;;;3.23;;
2404;SDS011;1213;43.206;27.922;2022-12-07T09:37:54;3.90;;;3.33;;
2404;SDS011;1213;43.206;27.922;2022-12-07T09:40:20;5.10;;;3.50;;
2404;SDS011;1213;43.206;27.922;2022-12-07T09:42:49;5.40;;;3.80;;
2404;SDS011;1213;43.206;27.922;2022-12-07T09:45:29;7.40;;;5.00;;
2404;SDS011;1213;43.206;27.922;2022-12-07T09:48:00;5.60;;;4.17;;
2404;SDS011;1213;43.206;27.922;2022-12-07T09:50:28;9.93;;;5.20;;
2404;SDS011;1213;43.206;27.922;2022-12-07T09:52:58;8.50;;;5.33;;
2404;SDS011;1213;43.206;27.922;2022-12-07T09:55:33;5.20;;;4.70;;
2404;SDS011;1213;43.206;27.922;2022-12-07T09:58:01;5.97;;;4.40;;
2404;SDS011;1213;43.206;27.922;2022-12-07T10:00:29;8.73;;;4.33;;
2404;SDS011;1213;43.206;27.922;2022-12-07T10:02:56;6.10;;;4.40;;
2404;SDS011;1213;43.206;27.922;2022-12-07T10:05:29;7.50;;;5.33;;
2404;SDS011;1213;43.206;27.922;2022-12-07T10:07:57;6.77;;;4.13;;
2404;SDS011;1213;43.206;27.922;2022-12-07T10:10:27;5.97;;;4.40;;
2404;SDS011;1213;43.206;27.922;2022-12-07T10:12:59;4.67;;;3.70;;
2404;SDS011;1213;43.206;27.922;2022-12-07T10:18:20;3.93;;;3.40;;
2404;SDS011;1213;43.206;27.922;2022-12-07T10:20:59;7.63;;;4.40;;
2404;SDS011;1213;43.206;27.922;2022-12-07T10:26:36;4.53;;;4.13;;
2404;SDS011;1213;43.206;27.922;2022-12-07T10:29:28;20.17;;;12.17;;
2404;SDS011;1213;43.206;27.922;2022-12-07T10:32:01;21.10;;;12.20;;
2404;SDS011;1213;43.206;27.922;2022-12-07T10:39:42;4.63;;;3.87;;
2404;SDS011;1213;43.206;27.922;2022-12-07T10:44:44;5.00;;;4.30;;
2404;SDS011;1213;43.206;27.922;2022-12-07T11:03:54;8.77;;;5.43;;
2404;SDS011;1213;43.206;27.922;2022-12-07T11:06:34;14.10;;;4.67;;
2404;SDS011;1213;43.206;27.922;2022-12-07T11:09:28;17.20;;;6.23;;
2404;SDS011;1213;43.206;27.922;2022-12-07T11:12:09;8.40;;;5.70;;
2404;SDS011;1213;43.206;27.922;2022-12-07T11:25:32;10.60;;;5.70;;
2404;SDS011;1213;43.206;27.922;2022-12-07T11:31:09;5.90;;;4.20;;
2404;SDS011;1213;43.206;27.922;2022-12-07T11:36:35;6.33;;;3.53;;
2404;SDS011;1213;43.206;27.922;2022-12-07T11:42:13;5.00;;;4.50;;
2404;SDS011;1213;43.206;27.922;2022-12-07T11:45:02;4.83;;;3.80;;
2404;SDS011;1213;43.206;27.922;2022-12-07T11:50:10;4.87;;;3.90;;
2404;SDS011;1213;43.206;27.922;2022-12-07T11:55:31;5.77;;;4.50;;
2404;SDS011;1213;43.206;27.922;2022-12-07T11:58:04;6.07;;;3.80;;
2404;SDS011;1213;43.206;27.922;2022-12-07T12:00:36;5.50;;;4.00;;
2404;SDS011;1213;43.206;27.922;2022-12-07T12:03:08;5.77;;;4.37;;
2404;SDS011;1213;43.206;27.922;2022-12-07T12:05:38;8.80;;;5.07;;
2404;SDS011;1213;43.206;27.922;2022-12-07T12:08:11;9.33;;;4.63;;
2404;SDS011;1213;43.206;27.922;2022-12-07T12:10:58;5.10;;;4.60;;
2404;SDS011;1213;43.206;27.922;2022-12-07T12:21:28;8.60;;;5.50;;
2404;SDS011;1213;43.206;27.922;2022-12-07T12:26:24;5.37;;;3.70;;
2404;SDS011;1213;43.206;27.922;2022-12-07T12:28:57;5.40;;;3.90;;
2404;SDS011;1213;43.206;27.922;2022-12-07T12:31:43;6.50;;;4.83;;
2404;SDS011;1213;43.206;27.922;2022-12-07T12:34:37;6.40;;;4.20;;
2404;SDS011;1213;43.206;27.922;2022-12-07T12:45:22;7.07;;;4.40;;
2404;SDS011;1213;43.206;27.922;2022-12-07T12:47:56;8.27;;;4.30;;
2404;SDS011;1213;43.206;27.922;2022-12-07T12:52:55;4.77;;;4.27;;
2404;SDS011;1213;43.206;27.922;2022-12-07T12:55:29;6.20;;;4.60;;
2404;SDS011;1213;43.206;27.922;2022-12-07T13:00:43;5.20;;;4.70;;
2404;SDS011;1213;43.206;27.922;2022-12-07T13:03:28;6.30;;;4.70;;
2404;SDS011;1213;43.206;27.922;2022-12-07T13:08:46;7.33;;;4.67;;
2404;SDS011;1213;43.206;27.922;2022-12-07T13:17:07;5.73;;;3.77;;
2404;SDS011;1213;43.206;27.922;2022-12-07T13:25:12;7.97;;;4.50;;
2404;SDS011;1213;43.206;27.922;2022-12-07T13:27:47;6.17;;;4.00;;
2404;SDS011;1213;43.206;27.922;2022-12-07T13:30:19;9.67;;;4.83;;
2404;SDS011;1213;43.206;27.922;2022-12-07T13:32:53;8.63;;;4.10;;
2404;SDS011;1213;43.206;27.922;2022-12-07T13:35:36;4.87;;;4.23;;
2404;SDS011;1213;43.206;27.922;2022-12-07T13:38:04;5.20;;;4.33;;
2404;SDS011;1213;43.206;27.922;2022-12-07T13:40:41;7.87;;;5.13;;
2404;SDS011;1213;43.206;27.922;2022-12-07T13:43:11;5.77;;;3.87;;
2404;SDS011;1213;43.206;27.922;2022-12-07T13:45:41;6.93;;;4.93;;
2404;SDS011;1213;43.206;27.922;2022-12-07T13:50:40;5.77;;;5.17;;
2404;SDS011;1213;43.206;27.922;2022-12-07T13:53:07;6.43;;;4.03;;
2404;SDS011;1213;43.206;27.922;2022-12-07T13:55:38;6.00;;;5.03;;
2404;SDS011;1213;43.206;27.922;2022-12-07T13:58:10;7.77;;;4.83;;
2404;SDS011;1213;43.206;27.922;2022-12-07T14:00:36;5.30;;;4.43;;
2404;SDS011;1213;43.206;27.922;2022-12-07T14:05:36;5.33;;;4.50;;
2404;SDS011;1213;43.206;27.922;2022-12-07T14:08:21;5.93;;;4.43;;
2404;SDS011;1213;43.206;27.922;2022-12-07T14:16:27;9.77;;;6.53;;
2404;SDS011;1213;43.206;27.922;2022-12-07T14:18:56;8.47;;;5.00;;
2404;SDS011;1213;43.206;27.922;2022-12-07T14:21:24;8.23;;;5.53;;
2404;SDS011;1213;43.206;27.922;2022-12-07T14:26:40;6.67;;;4.70;;
2404;SDS011;1213;43.206;27.922;2022-12-07T14:31:53;9.67;;;6.23;;
2404;SDS011;1213;43.206;27.922;2022-12-07T14:34:20;7.97;;;5.63;;
2404;SDS011;1213;43.206;27.922;2022-12-07T14:36:47;15.50;;;9.00;;
2404;SDS011;1213;43.206;27.922;2022-12-07T14:39:12;11.83;;;6.17;;
2404;SDS011;1213;43.206;27.922;2022-12-07T14:41:38;8.00;;;6.07;;
2404;SDS011;1213;43.206;27.922;2022-12-07T14:44:16;5.73;;;4.90;;
2404;SDS011;1213;43.206;27.922;2022-12-07T14:46:43;7.80;;;6.70;;
2404;SDS011;1213;43.206;27.922;2022-12-07T14:49:09;7.40;;;5.77;;
2404;SDS011;1213;43.206;27.922;2022-12-07T14:51:36;6.70;;;5.00;;
2404;SDS011;1213;43.206;27.922;2022-12-07T14:54:04;9.17;;;6.23;;
2404;SDS011;1213;43.206;27.922;2022-12-07T14:56:31;10.07;;;6.43;;
2404;SDS011;1213;43.206;27.922;2022-12-07T14:58:57;8.37;;;6.20;;
2404;SDS011;1213;43.206;27.922;2022-12-07T15:01:22;12.50;;;7.17;;
2404;SDS011;1213;43.206;27.922;2022-12-07T15:03:48;11.13;;;6.13;;
2404;SDS011;1213;43.206;27.922;2022-12-07T15:06:15;7.77;;;7.00;;
2404;SDS011;1213;43.206;27.922;2022-12-07T15:08:42;10.97;;;7.10;;
2404;SDS011;1213;43.206;27.922;2022-12-07T15:11:13;11.40;;;6.80;;
2404;SDS011;1213;43.206;27.922;2022-12-07T15:13:39;9.03;;;7.00;;
2404;SDS011;1213;43.206;27.922;2022-12-07T15:16:23;9.90;;;6.20;;
2404;SDS011;1213;43.206;27.922;2022-12-07T15:18:48;7.43;;;5.00;;
2404;SDS011;1213;43.206;27.922;2022-12-07T15:21:14;8.40;;;6.60;;
2404;SDS011;1213;43.206;27.922;2022-12-07T15:23:40;10.23;;;6.17;;
2404;SDS011;1213;43.206;27.922;2022-12-07T15:26:06;5.47;;;4.77;;
2404;SDS011;1213;43.206;27.922;2022-12-07T15:28:33;7.13;;;5.83;;
2404;SDS011;1213;43.206;27.922;2022-12-07T15:30:59;8.53;;;6.33;;
2404;SDS011;1213;43.206;27.922;2022-12-07T15:33:24;31.67;;;16.63;;
2404;SDS011;1213;43.206;27.922;2022-12-07T15:35:50;35.60;;;21.33;;
2404;SDS011;1213;43.206;27.922;2022-12-07T15:38:15;36.93;;;19.40;;
2404;SDS011;1213;43.206;27.922;2022-12-07T15:40:41;22.20;;;12.13;;
2404;SDS011;1213;43.206;27.922;2022-12-07T15:43:08;9.23;;;6.17;;
2404;SDS011;1213;43.206;27.922;2022-12-07T15:45:54;12.97;;;6.57;;
2404;SDS011;1213;43.206;27.922;2022-12-07T15:48:19;12.73;;;7.00;;
2404;SDS011;1213;43.206;27.922;2022-12-07T15:50:45;9.50;;;7.63;;
2404;SDS011;1213;43.206;27.922;2022-12-07T15:53:10;12.33;;;5.67;;
2404;SDS011;1213;43.206;27.922;2022-12-07T15:55:38;8.80;;;5.30;;
2404;SDS011;1213;43.206;27.922;2022-12-07T15:58:04;11.17;;;8.33;;
2404;SDS011;1213;43.206;27.922;2022-12-07T16:00:29;10.63;;;8.13;;
2404;SDS011;1213;43.206;27.922;2022-12-07T16:02:55;10.67;;;6.60;;
2404;SDS011;1213;43.206;27.922;2022-12-07T16:05:20;7.80;;;7.07;;
2404;SDS011;1213;43.206;27.922;2022-12-07T16:07:45;8.00;;;6.27;;
2404;SDS011;1213;43.206;27.922;2022-12-07T16:10:12;11.37;;;6.60;;
2404;SDS011;1213;43.206;27.922;2022-12-07T16:12:38;9.83;;;6.67;;
2404;SDS011;1213;43.206;27.922;2022-12-07T16:15:04;12.33;;;8.20;;
2404;SDS011;1213;43.206;27.922;2022-12-07T16:17:29;10.73;;;6.73;;
2404;SDS011;1213;43.206;27.922;2022-12-07T16:19:55;10.00;;;6.03;;
2404;SDS011;1213;43.206;27.922;2022-12-07T16:22:20;9.13;;;6.67;;
2404;SDS011;1213;43.206;27.922;2022-12-07T16:24:46;10.30;;;6.93;;
2404;SDS011;1213;43.206;27.922;2022-12-07T16:27:12;6.80;;;5.83;;
2404;SDS011;1213;43.206;27.922;2022-12-07T16:29:38;8.73;;;6.30;;
2404;SDS011;1213;43.206;27.922;2022-12-07T16:32:03;13.07;;;7.20;;
2404;SDS011;1213;43.206;27.922;2022-12-07T16:34:29;14.17;;;7.13;;
2404;SDS011;1213;43.206;27.922;2022-12-07T16:36:54;16.47;;;7.90;;
2404;SDS011;1213;43.206;27.922;2022-12-07T16:39:20;13.63;;;7.10;;
2404;SDS011;1213;43.206;27.922;2022-12-07T16:41:45;13.20;;;8.13;;
2404;SDS011;1213;43.206;27.922;2022-12-07T16:44:11;13.37;;;5.97;;
2404;SDS011;1213;43.206;27.922;2022-12-07T16:46:38;11.53;;;6.80;;
2404;SDS011;1213;43.206;27.922;2022-12-07T16:49:04;14.60;;;7.57;;
2404;SDS011;1213;43.206;27.922;2022-12-07T16:51:30;14.90;;;7.60;;
2404;SDS011;1213;43.206;27.922;2022-12-07T16:53:56;9.03;;;7.20;;
2404;SDS011;1213;43.206;27.922;2022-12-07T16:56:21;12.70;;;7.47;;
2404;SDS011;1213;43.206;27.922;2022-12-07T16:58:47;6.60;;;5.23;;
2404;SDS011;1213;43.206;27.922;2022-12-07T17:01:15;20.60;;;8.20;;
2404;SDS011;1213;43.206;27.922;2022-12-07T17:03:43;16.37;;;8.80;;
2404;SDS011;1213;43.206;27.922;2022-12-07T17:06:17;14.77;;;9.23;;
2404;SDS011;1213;43.206;27.922;2022-12-07T17:08:44;12.77;;;7.27;;
2404;SDS011;1213;43.206;27.922;2022-12-07T17:11:10;8.80;;;6.17;;
2404;SDS011;1213;43.206;27.922;2022-12-07T17:13:37;9.00;;;6.33;;
2404;SDS011;1213;43.206;27.922;2022-12-07T17:16:21;10.47;;;6.77;;
2404;SDS011;1213;43.206;27.922;2022-12-07T17:18:46;8.53;;;6.00;;
2404;SDS011;1213;43.206;27.922;2022-12-07T17:21:12;10.23;;;6.33;;
2404;SDS011;1213;43.206;27.922;2022-12-07T17:23:37;12.93;;;6.47;;
2404;SDS011;1213;43.206;27.922;2022-12-07T17:26:04;9.40;;;5.57;;
2404;SDS011;1213;43.206;27.922;2022-12-07T17:28:38;11.07;;;8.20;;
2404;SDS011;1213;43.206;27.922;2022-12-07T17:31:04;10.33;;;7.40;;
2404;SDS011;1213;43.206;27.922;2022-12-07T17:33:31;16.57;;;6.70;;
2404;SDS011;1213;43.206;27.922;2022-12-07T17:35:57;6.43;;;5.30;;
2404;SDS011;1213;43.206;27.922;2022-12-07T17:38:22;9.03;;;5.73;;